Time;durP1;ratioP1;P1;durP2;ratioP2;P2;SDS_P1;SDS_P2;PMS_P1;PMS_P2;Temp;Humidity;BMP_temperature;BMP_pressure;BME280_temperature;BME280_humidity;BME280_pressure;Samples;Min_cycle;Max_cycle;Signal;HPM_P1;HPM_P2
2022/08/19 00:01:24;;;;;;;;;;;18.10;99.90;;;;;;5089635;28;19924;-56
2022/08/19 00:03:57;;;;;;;;;;;18.10;99.90;;;;;;5088032;28;19931;-55
2022/08/19 00:06:25;;;;;;;;;;;18.10;99.90;;;;;;5089665;28;19951;-55
2022/08/19 00:08:54;;;;;;;;;;;18.10;99.90;;;;;;5089314;28;19931;-57
2022/08/19 00:11:21;;;;;;;;;;;18.10;99.90;;;;;;5087453;28;20459;-57
2022/08/19 00:13:52;;;;;;;;;;;18.10;99.90;;;;;;5080326;28;19928;-55
2022/08/19 00:16:23;;;;;;;;;;;18.10;99.90;;;;;;5088979;28;20218;-58
2022/08/19 00:18:54;;;;;;;;;;;18.00;99.90;;;;;;5089193;28;19924;-58
2022/08/19 00:21:23;;;;;;;;;;;18.00;99.90;;;;;;5089176;28;19931;-58
2022/08/19 00:23:52;;;;;;;;;;;18.00;99.90;;;;;;5088634;28;19928;-57
2022/08/19 00:26:20;;;;;;;;;;;18.00;99.90;;;;;;5088777;28;19924;-54
2022/08/19 00:28:47;;;;;;;;;;;18.00;99.90;;;;;;5080286;28;19924;-57
2022/08/19 00:31:16;;;;;;;;;;;17.90;99.90;;;;;;5089032;28;19924;-58
2022/08/19 00:33:43;;;;;;;;;;;17.80;99.90;;;;;;5088668;28;20002;-56
2022/08/19 00:36:11;;;;;;;;;;;17.70;99.90;;;;;;5088947;28;19925;-54
2022/08/19 00:38:43;;;;;;;;;;;17.60;99.90;;;;;;5087332;28;20298;-56
2022/08/19 00:41:13;;;;;;;;;;;17.60;99.90;;;;;;5088678;28;20510;-58
2022/08/19 00:43:41;;;;;;;;;;;17.50;99.90;;;;;;5079092;28;20399;-57
2022/08/19 00:46:08;;;;;;;;;;;17.30;99.90;;;;;;5088877;28;19948;-55
2022/08/19 00:48:36;;;;;;;;;;;17.10;99.90;;;;;;5088902;28;19924;-59
2022/08/19 00:51:05;;;;;;;;;;;17.00;99.90;;;;;;5088788;28;20295;-56
2022/08/19 00:53:33;;;;;;;;;;;16.90;99.90;;;;;;5087963;28;20284;-56
2022/08/19 00:56:02;;;;;;;;;;;16.80;99.90;;;;;;5088629;28;19925;-57
2022/08/19 00:58:31;;;;;;;;;;;16.70;99.90;;;;;;5087042;28;19940;-58
2022/08/19 01:01:00;;;;;;;;;;;16.60;99.90;;;;;;5088459;28;19931;-59
2022/08/19 01:03:28;;;;;;;;;;;16.50;99.90;;;;;;5084838;28;19924;-55
2022/08/19 01:06:15;;;;;;;;;;;16.50;99.90;;;;;;5084409;28;20379;-58
2022/08/19 01:08:47;;;;;;;;;;;16.40;99.90;;;;;;5088618;28;20395;-55
2022/08/19 01:11:16;;;;;;;;;;;16.30;99.90;;;;;;5088585;28;19932;-56
2022/08/19 01:13:45;;;;;;;;;;;16.20;99.90;;;;;;5080834;28;19951;-56
2022/08/19 01:16:17;;;;;;;;;;;16.10;99.90;;;;;;5087489;28;20375;-55
2022/08/19 01:18:44;;;;;;;;;;;16.00;99.90;;;;;;5088225;28;19925;-54
2022/08/19 01:21:15;;;;;;;;;;;15.90;99.90;;;;;;5088356;28;20371;-58
2022/08/19 01:23:43;;;;;;;;;;;15.90;99.90;;;;;;5087642;28;20391;-58
2022/08/19 01:26:13;;;;;;;;;;;15.80;99.90;;;;;;5088736;28;19931;-58
2022/08/19 01:28:41;;;;;;;;;;;15.70;99.90;;;;;;5083471;28;19928;-57
2022/08/19 01:31:15;;;;;;;;;;;15.60;99.90;;;;;;5080391;28;19932;-58
2022/08/19 01:33:55;;;;;;;;;;;15.60;99.90;;;;;;5070130;28;19950;-58
2022/08/19 01:36:25;;;;;;;;;;;15.50;99.90;;;;;;5071499;28;19924;-58
2022/08/19 01:38:53;;;;;;;;;;;15.50;99.90;;;;;;5085851;28;19935;-55
2022/08/19 01:41:23;;;;;;;;;;;15.40;99.90;;;;;;5095335;28;19923;-57
2022/08/19 01:43:51;;;;;;;;;;;15.40;99.90;;;;;;5078648;28;20528;-56
2022/08/19 01:46:39;;;;;;;;;;;15.30;99.90;;;;;;5085170;28;19932;-55
2022/08/19 01:49:07;;;;;;;;;;;15.20;99.90;;;;;;5095066;28;19931;-55
2022/08/19 01:51:36;;;;;;;;;;;15.20;99.90;;;;;;5095097;28;20402;-58
2022/08/19 01:54:07;;;;;;;;;;;15.10;99.90;;;;;;5094869;28;20477;-56
2022/08/19 01:56:34;;;;;;;;;;;15.00;99.90;;;;;;5094897;28;20287;-58
2022/08/19 01:59:06;;;;;;;;;;;15.00;99.90;;;;;;5093270;28;19924;-55
2022/08/19 02:01:34;;;;;;;;;;;15.00;99.90;;;;;;5094963;28;19924;-56
2022/08/19 02:04:02;;;;;;;;;;;15.00;99.90;;;;;;5094862;28;19924;-56
2022/08/19 02:06:29;;;;;;;;;;;15.10;99.90;;;;;;5094064;28;20406;-55
2022/08/19 02:08:57;;;;;;;;;;;15.00;99.90;;;;;;5094900;28;20290;-59
2022/08/19 02:11:31;;;;;;;;;;;15.10;99.90;;;;;;5093746;28;19950;-59
2022/08/19 02:14:00;;;;;;;;;;;15.00;99.90;;;;;;5093530;28;19924;-59
2022/08/19 02:16:28;;;;;;;;;;;15.10;99.90;;;;;;5094349;28;19949;-58
2022/08/19 02:18:55;;;;;;;;;;;15.10;99.90;;;;;;5094622;28;19931;-59
2022/08/19 02:21:23;;;;;;;;;;;15.00;99.90;;;;;;5094714;28;19924;-59
2022/08/19 02:23:51;;;;;;;;;;;15.10;99.90;;;;;;5093558;28;19928;-59
2022/08/19 02:26:19;;;;;;;;;;;15.10;99.90;;;;;;5094649;28;19932;-58
2022/08/19 02:28:47;;;;;;;;;;;15.10;99.90;;;;;;5094642;28;19924;-60
2022/08/19 02:31:17;;;;;;;;;;;15.10;99.90;;;;;;5094529;28;20528;-55
2022/08/19 02:33:45;;;;;;;;;;;15.10;99.90;;;;;;5094866;28;19924;-58
2022/08/19 02:36:14;;;;;;;;;;;15.10;99.90;;;;;;5094293;28;19931;-54
2022/08/19 02:38:43;;;;;;;;;;;15.10;99.90;;;;;;5094412;28;19924;-56
2022/08/19 02:41:26;;;;;;;;;;;15.10;99.90;;;;;;5094280;28;19924;-58
2022/08/19 02:43:57;;;;;;;;;;;15.10;99.90;;;;;;5094212;28;19931;-57
2022/08/19 02:46:46;;;;;;;;;;;15.10;99.90;;;;;;5094208;28;20420;-59
2022/08/19 02:49:16;;;;;;;;;;;15.10;99.90;;;;;;5094328;28;19924;-58
2022/08/19 02:51:44;;;;;;;;;;;15.10;99.90;;;;;;5093327;28;19946;-59
2022/08/19 02:54:13;;;;;;;;;;;15.10;99.90;;;;;;5092811;28;19937;-57
2022/08/19 02:56:41;;;;;;;;;;;15.10;99.90;;;;;;5092670;28;19924;-59
2022/08/19 02:59:10;;;;;;;;;;;15.00;99.90;;;;;;5093790;28;19947;-56
2022/08/19 03:01:39;;;;;;;;;;;14.90;99.90;;;;;;5093666;28;19924;-55
2022/08/19 03:04:07;;;;;;;;;;;14.80;99.90;;;;;;5093874;28;19924;-57
2022/08/19 03:06:39;;;;;;;;;;;14.70;99.90;;;;;;5093547;28;20399;-54
2022/08/19 03:09:07;;;;;;;;;;;14.60;99.90;;;;;;5093667;28;19924;-56
2022/08/19 03:11:34;;;;;;;;;;;14.40;99.90;;;;;;5093445;28;19924;-55
2022/08/19 03:14:03;;;;;;;;;;;14.30;99.90;;;;;;5093568;28;19924;-54
2022/08/19 03:16:32;;;;;;;;;;;14.20;99.90;;;;;;5093189;28;20390;-54
2022/08/19 03:19:01;;;;;;;;;;;14.00;99.90;;;;;;5093289;28;19924;-55
2022/08/19 03:21:30;;;;;;;;;;;13.90;99.90;;;;;;5093574;28;20386;-54
2022/08/19 03:23:59;;;;;;;;;;;13.80;99.90;;;;;;5093270;28;19924;-57
2022/08/19 03:26:27;;;;;;;;;;;13.70;99.90;;;;;;5093437;28;19924;-55
2022/08/19 03:28:55;;;;;;;;;;;13.60;99.90;;;;;;5092266;28;19924;-58
2022/08/19 03:31:26;;;;;;;;;;;13.50;99.90;;;;;;5093400;28;19924;-55
2022/08/19 03:34:15;;;;;;;;;;;13.50;99.90;;;;;;5093294;28;19924;-55
2022/08/19 03:36:43;;;;;;;;;;;13.40;99.90;;;;;;5093244;28;19924;-54
2022/08/19 03:39:10;;;;;;;;;;;13.30;99.90;;;;;;5093211;28;20486;-55
2022/08/19 03:41:40;;;;;;;;;;;13.20;99.90;;;;;;5093048;28;19924;-57
2022/08/19 03:44:17;;;;;;;;;;;13.20;99.90;;;;;;5093155;28;19924;-55
2022/08/19 03:46:47;;;;;;;;;;;13.10;99.90;;;;;;5093156;28;20496;-55
2022/08/19 03:49:14;;;;;;;;;;;13.10;99.90;;;;;;5093222;28;19938;-54
2022/08/19 03:51:45;;;;;;;;;;;13.00;99.90;;;;;;5093096;28;19924;-56
2022/08/19 03:54:13;;;;;;;;;;;13.00;99.90;;;;;;5092900;28;19924;-54
2022/08/19 03:56:42;;;;;;;;;;;12.90;99.90;;;;;;5092908;28;19924;-55
2022/08/19 03:59:11;;;;;;;;;;;12.90;99.90;;;;;;5092886;28;20379;-55
2022/08/19 04:01:38;;;;;;;;;;;12.90;99.90;;;;;;5092696;28;19932;-55
2022/08/19 04:04:06;;;;;;;;;;;12.80;99.90;;;;;;5092590;28;19931;-53
2022/08/19 04:06:38;;;;;;;;;;;12.80;99.90;;;;;;5092718;28;19924;-54
2022/08/19 04:09:08;;;;;;;;;;;12.80;99.90;;;;;;5092675;28;19931;-54
2022/08/19 04:11:41;;;;;;;;;;;12.70;99.90;;;;;;5092449;28;19924;-54
2022/08/19 04:14:12;;;;;;;;;;;12.70;99.90;;;;;;5092335;28;19929;-57
2022/08/19 04:16:39;;;;;;;;;;;12.60;99.90;;;;;;5092241;28;20006;-54
2022/08/19 04:19:07;;;;;;;;;;;12.60;99.90;;;;;;5092481;28;19947;-54
2022/08/19 04:21:34;;;;;;;;;;;12.60;99.90;;;;;;5092268;28;19924;-54
2022/08/19 04:24:02;;;;;;;;;;;12.60;99.90;;;;;;5092568;28;19935;-54
2022/08/19 04:26:32;;;;;;;;;;;12.60;99.90;;;;;;5092322;28;19931;-54
2022/08/19 04:29:00;;;;;;;;;;;12.60;99.90;;;;;;5092280;28;19924;-56
2022/08/19 04:31:29;;;;;;;;;;;12.50;99.90;;;;;;5092155;28;19931;-55
2022/08/19 04:33:58;;;;;;;;;;;12.50;99.90;;;;;;5092291;28;19932;-55
2022/08/19 04:36:27;;;;;;;;;;;12.50;99.90;;;;;;5090884;28;19928;-56
2022/08/19 04:38:56;;;;;;;;;;;12.50;99.90;;;;;;5092394;28;19924;-55
2022/08/19 04:44:10;;;;;;;;;;;12.40;99.90;;;;;;5092129;28;20383;-54
2022/08/19 04:46:38;;;;;;;;;;;12.40;99.90;;;;;;5091938;28;20291;-54
2022/08/19 04:49:19;;;;;;;;;;;12.30;99.90;;;;;;5069198;28;19931;-55
2022/08/19 04:51:47;;;;;;;;;;;12.30;99.90;;;;;;5068460;28;20319;-55
2022/08/19 04:54:16;;;;;;;;;;;12.20;99.90;;;;;;5068513;28;19928;-54
2022/08/19 04:57:06;;;;;;;;;;;12.20;99.90;;;;;;5069249;28;19947;-55
2022/08/19 04:59:34;;;;;;;;;;;12.10;99.90;;;;;;5088979;28;19932;-54
2022/08/19 05:02:02;;;;;;;;;;;12.10;99.90;;;;;;5081221;28;19932;-54
2022/08/19 05:04:31;;;;;;;;;;;12.10;99.90;;;;;;5065189;28;20176;-54
2022/08/19 05:07:00;;;;;;;;;;;12.00;99.90;;;;;;5064133;28;19928;-54
2022/08/19 05:09:29;;;;;;;;;;;12.00;99.90;;;;;;5083938;28;19924;-58
2022/08/19 05:12:17;;;;;;;;;;;12.00;99.90;;;;;;5084081;28;19925;-55
2022/08/19 05:14:46;;;;;;;;;;;12.00;99.90;;;;;;5087838;28;19931;-58
2022/08/19 05:17:15;;;;;;;;;;;11.90;99.90;;;;;;5090745;28;19924;-58
2022/08/19 05:22:50;;;;;;;;;;;11.90;99.90;;;;;;5082014;28;20315;-59
2022/08/19 05:25:19;;;;;;;;;;;11.90;99.90;;;;;;5092603;28;19924;-58
2022/08/19 05:27:47;;;;;;;;;;;11.80;99.90;;;;;;5091086;28;19928;-59
2022/08/19 05:30:14;;;;;;;;;;;11.80;99.90;;;;;;5092480;28;20375;-58
2022/08/19 05:32:42;;;;;;;;;;;11.80;99.90;;;;;;5088831;28;19932;-57
2022/08/19 05:35:11;;;;;;;;;;;11.80;99.90;;;;;;5087718;28;20295;-60
2022/08/19 05:37:42;;;;;;;;;;;11.80;99.90;;;;;;5090121;28;19931;-56
2022/08/19 05:40:10;;;;;;;;;;;11.80;99.90;;;;;;5092099;28;19928;-54
2022/08/19 05:42:40;;;;;;;;;;;11.80;99.90;;;;;;5091451;28;20371;-54
2022/08/19 05:45:08;;;;;;;;;;;11.80;99.90;;;;;;5092062;28;20367;-56
2022/08/19 05:47:35;;;;;;;;;;;11.80;99.90;;;;;;5088390;28;19936;-58
2022/08/19 05:50:08;;;;;;;;;;;11.80;99.90;;;;;;5068411;28;19925;-55
2022/08/19 05:52:37;;;;;;;;;;;11.80;99.90;;;;;;5078468;28;19924;-54
2022/08/19 05:55:10;;;;;;;;;;;11.80;99.90;;;;;;5090551;28;19935;-60
2022/08/19 05:57:38;;;;;;;;;;;11.90;99.90;;;;;;5091817;28;20275;-54
2022/08/19 06:00:10;;;;;;;;;;;11.90;99.90;;;;;;5091824;28;19924;-55
2022/08/19 06:02:38;;;;;;;;;;;11.90;99.90;;;;;;5087795;28;20375;-58
2022/08/19 06:05:08;;;;;;;;;;;11.90;99.90;;;;;;5068174;28;19924;-55
2022/08/19 06:07:36;;;;;;;;;;;11.90;99.90;;;;;;5075776;28;19924;-58
2022/08/19 06:10:05;;;;;;;;;;;11.90;99.90;;;;;;5090054;28;19928;-54
2022/08/19 06:12:34;;;;;;;;;;;11.90;99.90;;;;;;5091344;28;19935;-54
2022/08/19 06:15:04;;;;;;;;;;;12.00;99.90;;;;;;5090190;28;19928;-55
2022/08/19 06:17:31;;;;;;;;;;;12.00;99.90;;;;;;5091257;28;19924;-59
2022/08/19 06:19:59;;;;;;;;;;;12.10;99.90;;;;;;5086402;28;19928;-54
2022/08/19 06:22:27;;;;;;;;;;;12.20;99.90;;;;;;5077567;28;19924;-57
2022/08/19 06:24:55;;;;;;;;;;;12.20;99.90;;;;;;5090221;28;19947;-58
2022/08/19 06:27:23;;;;;;;;;;;12.30;99.90;;;;;;5091158;28;19937;-59
2022/08/19 06:29:50;;;;;;;;;;;12.40;99.90;;;;;;5091060;28;19924;-59
2022/08/19 06:32:18;;;;;;;;;;;12.50;99.90;;;;;;5086630;28;19946;-61
2022/08/19 06:34:46;;;;;;;;;;;12.50;99.90;;;;;;5071880;28;20391;-61
2022/08/19 06:37:14;;;;;;;;;;;12.60;99.90;;;;;;5071937;28;19925;-56
2022/08/19 06:39:42;;;;;;;;;;;12.70;99.90;;;;;;5091425;28;19931;-61
2022/08/19 06:42:12;;;;;;;;;;;12.80;99.90;;;;;;5088014;28;19935;-60
2022/08/19 06:44:41;;;;;;;;;;;12.90;99.90;;;;;;5087200;28;19931;-60
2022/08/19 06:47:11;;;;;;;;;;;12.90;99.90;;;;;;5089914;28;19951;-60
2022/08/19 06:49:41;;;;;;;;;;;13.00;99.90;;;;;;5085779;28;19925;-58
2022/08/19 06:52:12;;;;;;;;;;;13.00;99.90;;;;;;5074356;28;19924;-58
2022/08/19 06:54:41;;;;;;;;;;;13.10;99.90;;;;;;5090474;28;20410;-58
2022/08/19 06:57:23;;;;;;;;;;;13.20;99.90;;;;;;5090673;28;19943;-55
2022/08/19 06:59:51;;;;;;;;;;;13.30;99.90;;;;;;5089773;28;19924;-57
2022/08/19 07:02:20;;;;;;;;;;;13.30;99.90;;;;;;5088356;28;19928;-56
2022/08/19 07:04:48;;;;;;;;;;;13.40;99.90;;;;;;5072888;28;19933;-55
2022/08/19 07:07:20;;;;;;;;;;;13.40;99.90;;;;;;5070478;28;19924;-56
2022/08/19 07:09:49;;;;;;;;;;;13.50;99.90;;;;;;5090466;28;19924;-56
2022/08/19 07:12:25;;;;;;;;;;;13.60;99.90;;;;;;5089027;28;19928;-55
2022/08/19 07:14:53;;;;;;;;;;;13.60;99.90;;;;;;5090076;28;19928;-55
2022/08/19 07:17:20;;;;;;;;;;;13.70;99.90;;;;;;5090293;28;19947;-54
2022/08/19 07:19:50;;;;;;;;;;;13.70;99.90;;;;;;5077065;28;19924;-54
2022/08/19 07:22:22;;;;;;;;;;;13.80;99.90;;;;;;5075215;28;19935;-54
2022/08/19 07:24:51;;;;;;;;;;;13.90;99.90;;;;;;5088592;28;20299;-54
2022/08/19 07:27:18;;;;;;;;;;;14.00;99.90;;;;;;5090076;28;19935;-56
2022/08/19 07:29:52;;;;;;;;;;;14.00;99.90;;;;;;5089999;28;20379;-55
2022/08/19 07:32:26;;;;;;;;;;;14.10;99.90;;;;;;5089969;28;19935;-54
2022/08/19 07:34:54;;;;;;;;;;;14.20;99.90;;;;;;5078022;27;20395;-55
2022/08/19 07:37:23;;;;;;;;;;;14.20;99.90;;;;;;5072005;28;19932;-55
2022/08/19 07:39:55;;;;;;;;;;;14.30;99.90;;;;;;5072428;28;20378;-56
2022/08/19 07:42:23;;;;;;;;;;;14.40;99.90;;;;;;5071495;28;19928;-60
2022/08/19 07:44:50;;;;;;;;;;;14.50;99.90;;;;;;5089547;28;19935;-60
2022/08/19 07:47:18;;;;;;;;;;;14.50;99.90;;;;;;5089736;28;19924;-60
2022/08/19 07:50:07;;;;;;;;;;;14.60;99.90;;;;;;5076204;28;19924;-59
2022/08/19 07:52:37;;;;;;;;;;;14.70;99.90;;;;;;5076146;28;19923;-55
2022/08/19 07:55:05;;;;;;;;;;;14.90;99.90;;;;;;5089487;28;19931;-59
2022/08/19 07:57:53;;;;;;;;;;;14.80;99.90;;;;;;5089473;28;19924;-59
2022/08/19 08:00:20;;;;;;;;;;;14.90;99.90;;;;;;5088244;28;19931;-58
2022/08/19 08:02:51;;;;;;;;;;;15.00;99.90;;;;;;5089067;28;19946;-62
2022/08/19 08:10:59;;;;;;;;;;;15.20;99.90;;;;;;5073895;28;19943;-57
2022/08/19 08:13:27;;;;;;;;;;;15.30;99.90;;;;;;5088810;28;19931;-61
2022/08/19 08:15:56;;;;;;;;;;;15.30;99.90;;;;;;5088268;28;20295;-61
2022/08/19 08:18:23;;;;;;;;;;;15.40;99.90;;;;;;5084546;28;20367;-61
2022/08/19 08:20:54;;;;;;;;;;;15.40;99.90;;;;;;5068110;28;19928;-58
2022/08/19 08:23:22;;;;;;;;;;;15.50;99.90;;;;;;5081892;28;19931;-60
2022/08/19 08:25:50;;;;;;;;;;;15.60;99.90;;;;;;5088904;28;19938;-58
2022/08/19 08:28:18;;;;;;;;;;;15.60;99.90;;;;;;5088821;28;19935;-55
2022/08/19 08:30:47;;;;;;;;;;;15.70;99.90;;;;;;5089193;28;19926;-61
2022/08/19 08:33:18;;;;;;;;;;;15.80;99.90;;;;;;5088953;28;19924;-57
2022/08/19 08:35:56;;;;;;;;;;;15.80;99.90;;;;;;5071228;28;19932;-60
2022/08/19 08:38:23;;;;;;;;;;;15.90;99.90;;;;;;5079714;28;19935;-61
2022/08/19 08:41:06;;;;;;;;;;;16.00;99.90;;;;;;5088054;28;20387;-61
2022/08/19 08:43:35;;;;;;;;;;;16.00;99.90;;;;;;5088604;28;19925;-60
2022/08/19 08:46:05;;;;;;;;;;;16.10;99.90;;;;;;5087501;28;19931;-60
2022/08/19 08:48:33;;;;;;;;;;;16.20;99.90;;;;;;5087827;28;19924;-56
2022/08/19 08:51:03;;;;;;;;;;;16.30;99.90;;;;;;5071532;28;19932;-56
2022/08/19 08:53:31;;;;;;;;;;;16.40;99.90;;;;;;5083003;28;19930;-55
2022/08/19 08:56:06;;;;;;;;;;;16.50;99.90;;;;;;5088856;28;19924;-56
2022/08/19 08:58:42;;;;;;;;;;;16.70;99.90;;;;;;5087477;28;19932;-55
2022/08/19 09:01:11;;;;;;;;;;;16.80;99.90;;;;;;5088861;28;19950;-57
2022/08/19 09:03:39;;;;;;;;;;;16.80;99.90;;;;;;5088345;28;19951;-55
2022/08/19 09:06:11;;;;;;;;;;;16.90;99.90;;;;;;5071068;28;19932;-55
2022/08/19 09:08:59;;;;;;;;;;;16.90;99.90;;;;;;5081513;28;20665;-59
2022/08/19 09:11:48;;;;;;;;;;;16.80;99.90;;;;;;5087533;28;19931;-62
2022/08/19 09:14:19;;;;;;;;;;;16.80;99.90;;;;;;5088263;28;19947;-60
2022/08/19 09:17:09;;;;;;;;;;;16.80;99.90;;;;;;5088507;28;19931;-55
2022/08/19 09:19:51;;;;;;;;;;;17.00;99.90;;;;;;5083117;28;19924;-55
2022/08/19 09:22:21;;;;;;;;;;;17.10;99.90;;;;;;5072709;28;19930;-55
2022/08/19 09:24:53;;;;;;;;;;;17.10;99.90;;;;;;5088195;28;20322;-57
2022/08/19 09:27:21;;;;;;;;;;;17.10;99.90;;;;;;5088399;28;19931;-54
2022/08/19 09:30:10;;;;;;;;;;;17.10;99.90;;;;;;5087304;28;19924;-55
2022/08/19 09:32:41;;;;;;;;;;;17.20;99.90;;;;;;5088087;28;20358;-55
2022/08/19 09:35:09;;;;;;;;;;;17.20;99.90;;;;;;5081482;28;19947;-55
2022/08/19 09:37:38;;;;;;;;;;;17.30;99.90;;;;;;5072603;28;19924;-56
2022/08/19 09:40:07;;;;;;;;;;;17.20;99.80;;;;;;5087338;28;19936;-55
2022/08/19 09:42:38;;;;;;;;;;;17.20;99.90;;;;;;5070699;28;19928;-55
2022/08/19 09:45:17;;;;;;;;;;;17.30;99.90;;;;;;5088372;28;19931;-55
2022/08/19 09:47:45;;;;;;;;;;;17.30;99.90;;;;;;5088098;28;19931;-61
2022/08/19 09:50:13;;;;;;;;;;;17.30;99.90;;;;;;5081372;28;19925;-56
2022/08/19 09:52:42;;;;;;;;;;;17.30;99.90;;;;;;5075483;28;19924;-56
2022/08/19 09:55:24;;;;;;;;;;;17.40;99.90;;;;;;5088226;28;19924;-60
2022/08/19 09:57:59;;;;;;;;;;;17.50;99.80;;;;;;5087945;28;19948;-58
2022/08/19 10:00:26;;;;;;;;;;;17.60;99.90;;;;;;5090362;28;19924;-55
2022/08/19 10:02:54;;;;;;;;;;;17.70;99.90;;;;;;5090609;28;19924;-55
2022/08/19 10:08:09;;;;;;;;;;;17.90;99.70;;;;;;5080150;28;19932;-55
2022/08/19 10:10:43;;;;;;;;;;;18.10;99.90;;;;;;5091941;28;19924;-55
2022/08/19 10:13:15;;;;;;;;;;;18.20;99.40;;;;;;5091491;28;19924;-59
2022/08/19 10:15:43;;;;;;;;;;;18.20;98.90;;;;;;5091480;28;19935;-62
2022/08/19 10:18:17;;;;;;;;;;;18.30;99.00;;;;;;5091666;28;19928;-57
2022/08/19 10:20:45;;;;;;;;;;;18.30;98.60;;;;;;5082579;28;19931;-57
2022/08/19 10:23:19;;;;;;;;;;;18.40;98.20;;;;;;5083535;28;20427;-57
2022/08/19 10:25:48;;;;;;;;;;;18.40;97.40;;;;;;5091096;28;19925;-59
2022/08/19 10:28:16;;;;;;;;;;;18.40;97.90;;;;;;5091333;28;19935;-60
2022/08/19 10:30:47;;;;;;;;;;;18.30;98.10;;;;;;5089948;28;19928;-61
2022/08/19 10:33:14;;;;;;;;;;;18.30;98.70;;;;;;5089448;28;19924;-57
2022/08/19 10:36:07;;;;;;;;;;;18.30;98.30;;;;;;5079508;28;19925;-56
2022/08/19 10:38:35;;;;;;;;;;;18.30;97.90;;;;;;5082935;28;19924;-56
2022/08/19 10:41:13;;;;;;;;;;;18.40;98.10;;;;;;5091162;28;19924;-56
2022/08/19 10:43:41;;;;;;;;;;;18.60;98.10;;;;;;5090454;28;20369;-63
2022/08/19 10:46:09;;;;;;;;;;;18.80;97.60;;;;;;5089596;28;20368;-63
2022/08/19 10:48:43;;;;;;;;;;;19.00;97.40;;;;;;5090627;28;20276;-55
2022/08/19 10:53:58;;;;;;;;;;;19.10;96.00;;;;;;5087973;28;19925;-59
2022/08/19 10:59:13;;;;;;;;;;;19.30;97.10;;;;;;5090356;28;20311;-61
2022/08/19 11:01:42;;;;;;;;;;;19.60;95.90;;;;;;5090871;28;19924;-61
2022/08/19 11:04:13;;;;;;;;;;;19.90;96.00;;;;;;5090506;28;19947;-57
2022/08/19 11:06:43;;;;;;;;;;;20.10;95.30;;;;;;5076323;28;19935;-59
2022/08/19 11:09:11;;;;;;;;;;;20.20;95.20;;;;;;5069774;28;20338;-62
2022/08/19 11:11:41;;;;;;;;;;;20.20;95.30;;;;;;5089724;28;19943;-61
2022/08/19 11:14:14;;;;;;;;;;;20.10;95.50;;;;;;5090045;28;20406;-61
2022/08/19 11:16:42;;;;;;;;;;;20.00;95.30;;;;;;5090234;28;19931;-57
2022/08/19 11:19:10;;;;;;;;;;;20.00;95.50;;;;;;5089792;28;19935;-61
2022/08/19 11:21:39;;;;;;;;;;;19.90;95.40;;;;;;5077715;28;19944;-61
2022/08/19 11:24:09;;;;;;;;;;;19.90;95.80;;;;;;5088592;28;19924;-62
2022/08/19 11:26:37;;;;;;;;;;;19.90;96.00;;;;;;5090346;28;19924;-62
2022/08/19 11:29:11;;;;;;;;;;;19.90;96.40;;;;;;5089624;28;20450;-60
2022/08/19 11:31:40;;;;;;;;;;;20.10;95.50;;;;;;5090393;28;20079;-62
2022/08/19 11:34:09;;;;;;;;;;;20.10;95.80;;;;;;5088302;28;19924;-62
2022/08/19 11:36:38;;;;;;;;;;;20.30;94.30;;;;;;5078445;28;19928;-61
2022/08/19 11:39:07;;;;;;;;;;;20.40;94.80;;;;;;5084758;28;19932;-61
2022/08/19 11:41:35;;;;;;;;;;;20.50;93.20;;;;;;5089715;28;20383;-61
2022/08/19 11:44:04;;;;;;;;;;;20.60;92.30;;;;;;5071348;28;19931;-60
2022/08/19 11:46:31;;;;;;;;;;;20.50;92.10;;;;;;5089685;28;19928;-60
2022/08/19 11:49:00;;;;;;;;;;;20.30;92.00;;;;;;5089772;28;20295;-55
2022/08/19 11:51:28;;;;;;;;;;;20.20;91.80;;;;;;5080072;28;19924;-61
2022/08/19 11:53:56;;;;;;;;;;;20.20;91.30;;;;;;5086223;28;19928;-55
2022/08/19 11:56:24;;;;;;;;;;;20.20;91.90;;;;;;5088526;28;19931;-59
2022/08/19 11:58:52;;;;;;;;;;;20.40;91.40;;;;;;5089305;28;20512;-58
2022/08/19 12:01:21;;;;;;;;;;;20.40;91.50;;;;;;5088483;28;19935;-55
2022/08/19 12:03:50;;;;;;;;;;;20.50;91.80;;;;;;5085743;28;19924;-55
2022/08/19 12:06:19;;;;;;;;;;;20.60;90.90;;;;;;5062133;28;19924;-54
2022/08/19 12:08:47;;;;;;;;;;;20.50;91.00;;;;;;5082812;28;19935;-55
2022/08/19 12:11:15;;;;;;;;;;;20.60;91.60;;;;;;5089400;28;19924;-55
2022/08/19 12:13:46;;;;;;;;;;;20.70;90.90;;;;;;5087695;28;19924;-58
2022/08/19 12:16:15;;;;;;;;;;;20.80;91.40;;;;;;5089164;28;19924;-55
2022/08/19 12:18:46;;;;;;;;;;;21.00;90.90;;;;;;5089067;28;19924;-57
2022/08/19 12:21:14;;;;;;;;;;;21.20;89.90;;;;;;5083956;28;20378;-55
2022/08/19 12:23:42;;;;;;;;;;;21.20;89.50;;;;;;5082599;28;19931;-55
2022/08/19 12:26:10;;;;;;;;;;;21.20;88.40;;;;;;5089028;28;19950;-55
2022/08/19 12:28:37;;;;;;;;;;;21.10;88.70;;;;;;5088932;28;19924;-55
2022/08/19 12:31:05;;;;;;;;;;;20.90;89.80;;;;;;5089403;28;19962;-55
2022/08/19 12:33:32;;;;;;;;;;;20.80;90.40;;;;;;5088880;28;19935;-54
2022/08/19 12:36:01;;;;;;;;;;;20.90;91.20;;;;;;5086438;28;19931;-55
2022/08/19 12:38:29;;;;;;;;;;;20.90;89.40;;;;;;5080299;28;19931;-54
2022/08/19 12:40:56;;;;;;;;;;;20.80;89.10;;;;;;5088067;28;19931;-55
2022/08/19 12:43:26;;;;;;;;;;;20.60;90.20;;;;;;5089009;28;20302;-56
2022/08/19 12:45:54;;;;;;;;;;;20.40;90.20;;;;;;5089108;28;19924;-55
2022/08/19 12:48:23;;;;;;;;;;;20.40;90.70;;;;;;5087573;28;19924;-59
2022/08/19 12:51:05;;;;;;;;;;;20.40;91.00;;;;;;5088031;28;19924;-61
2022/08/19 12:53:33;;;;;;;;;;;20.50;91.00;;;;;;5082085;28;19924;-61
2022/08/19 12:56:00;;;;;;;;;;;20.50;90.50;;;;;;5088659;28;19924;-59
2022/08/19 12:58:29;;;;;;;;;;;20.40;90.90;;;;;;5088388;28;19935;-62
2022/08/19 13:00:56;;;;;;;;;;;20.40;91.00;;;;;;5087593;28;19928;-60
2022/08/19 13:03:28;;;;;;;;;;;20.40;91.20;;;;;;5085328;28;19924;-60
2022/08/19 13:05:56;;;;;;;;;;;20.50;91.30;;;;;;5086343;28;19923;-61
2022/08/19 13:08:23;;;;;;;;;;;20.70;90.70;;;;;;5079111;28;19924;-61
2022/08/19 13:10:51;;;;;;;;;;;20.70;90.60;;;;;;5087225;28;19924;-57
2022/08/19 13:13:18;;;;;;;;;;;20.90;91.20;;;;;;5087176;28;20187;-61
2022/08/19 13:15:47;;;;;;;;;;;21.50;91.30;;;;;;5087158;28;20379;-61
2022/08/19 13:18:14;;;;;;;;;;;22.20;89.70;;;;;;5088580;28;19931;-63
2022/08/19 13:20:42;;;;;;;;;;;22.90;88.70;;;;;;5088423;28;20299;-56
2022/08/19 13:23:18;;;;;;;;;;;23.60;84.80;;;;;;5081302;28;20011;-56
2022/08/19 13:25:55;;;;;;;;;;;24.10;80.80;;;;;;5088871;28;19924;-55
2022/08/19 13:28:22;;;;;;;;;;;24.10;76.10;;;;;;5087294;28;19932;-55
2022/08/19 13:33:41;;;;;;;;;;;23.50;75.10;;;;;;5088209;28;19946;-57
2022/08/19 13:36:09;;;;;;;;;;;23.40;78.40;;;;;;5092144;28;20283;-60
2022/08/19 13:38:37;;;;;;;;;;;23.80;78.30;;;;;;5090752;28;19928;-59
2022/08/19 13:41:05;;;;;;;;;;;24.40;76.90;;;;;;5092499;28;19928;-64
2022/08/19 13:43:38;;;;;;;;;;;24.90;73.20;;;;;;5090714;28;20281;-62
2022/08/19 13:46:09;;;;;;;;;;;24.70;72.40;;;;;;5092298;28;19924;-63
2022/08/19 13:48:37;;;;;;;;;;;24.60;73.20;;;;;;5092168;28;20152;-58
2022/08/19 13:51:04;;;;;;;;;;;24.50;73.20;;;;;;5092377;28;19957;-58
2022/08/19 13:53:32;;;;;;;;;;;24.60;74.00;;;;;;5086165;28;19947;-64
2022/08/19 13:55:59;;;;;;;;;;;24.90;71.70;;;;;;5092072;28;20375;-60
2022/08/19 13:58:27;;;;;;;;;;;25.30;72.40;;;;;;5090664;28;19931;-64
2022/08/19 14:00:54;;;;;;;;;;;25.50;70.50;;;;;;5091924;28;19947;-62
2022/08/19 14:03:23;;;;;;;;;;;25.10;69.10;;;;;;5091571;28;19924;-62
2022/08/19 14:05:50;;;;;;;;;;;24.60;68.60;;;;;;5090887;28;19935;-61
2022/08/19 14:08:18;;;;;;;;;;;23.90;69.70;;;;;;5082082;28;19928;-59
2022/08/19 14:10:45;;;;;;;;;;;23.30;71.10;;;;;;5088973;28;19928;-64
2022/08/19 14:13:14;;;;;;;;;;;22.90;72.90;;;;;;5091439;28;19924;-64
2022/08/19 14:15:42;;;;;;;;;;;22.60;73.50;;;;;;5090077;28;20383;-64
2022/08/19 14:18:10;;;;;;;;;;;22.30;74.30;;;;;;5091297;28;19931;-67
2022/08/19 14:20:37;;;;;;;;;;;22.10;75.00;;;;;;5091605;28;19935;-64
2022/08/19 14:23:05;;;;;;;;;;;22.00;74.20;;;;;;5087337;28;19932;-61
2022/08/19 14:25:33;;;;;;;;;;;21.90;75.00;;;;;;5091241;28;19935;-64
2022/08/19 14:28:01;;;;;;;;;;;21.70;76.00;;;;;;5091331;28;19955;-62
2022/08/19 14:30:32;;;;;;;;;;;21.70;76.70;;;;;;5090189;28;19931;-61
2022/08/19 14:33:00;;;;;;;;;;;22.10;79.00;;;;;;5091013;28;19925;-60
2022/08/19 14:35:28;;;;;;;;;;;22.60;76.70;;;;;;5091097;28;19947;-63
2022/08/19 14:37:57;;;;;;;;;;;23.10;74.10;;;;;;5085998;28;20418;-64
2022/08/19 14:40:27;;;;;;;;;;;23.30;73.00;;;;;;5091108;28;19924;-57
2022/08/19 14:42:59;;;;;;;;;;;23.40;73.20;;;;;;5090787;28;19924;-58
2022/08/19 14:45:27;;;;;;;;;;;23.50;74.40;;;;;;5089142;28;19924;-57
2022/08/19 14:47:55;;;;;;;;;;;23.50;73.40;;;;;;5090262;28;19928;-57
2022/08/19 14:50:22;;;;;;;;;;;23.40;72.90;;;;;;5090822;28;19943;-57
2022/08/19 14:52:57;;;;;;;;;;;23.10;73.50;;;;;;5089148;28;19928;-57
2022/08/19 14:55:24;;;;;;;;;;;22.90;73.80;;;;;;5090819;28;19935;-55